Time;durP1;ratioP1;P1;durP2;ratioP2;P2;SDS_P1;SDS_P2;PMS_P1;PMS_P2;Temp;Humidity;BMP_temperature;BMP_pressure;BME280_temperature;BME280_humidity;BME280_pressure;Samples;Min_cycle;Max_cycle;Signal;HPM_P1;HPM_P2
2020/12/18 00:00:51;;;;;;;86.37;31.63;;;3.10;99.90;;;;;;4883224;29;20650;-91
2020/12/18 00:03:17;;;;;;;89.63;34.00;;;4.30;99.90;;;;;;4899852;29;20186;-92
2020/12/18 00:05:43;;;;;;;109.33;36.73;;;3.10;99.90;;;;;;4899728;29;20268;-92
2020/12/18 00:08:09;;;;;;;101.20;34.33;;;5.20;99.90;;;;;;4882765;29;20191;-93
2020/12/18 00:10:37;;;;;;;88.10;32.83;;;3.10;99.90;;;;;;4882944;29;20639;-93
2020/12/18 00:13:03;;;;;;;95.40;33.97;;;4.00;99.90;;;;;;4899336;29;20192;-92
2020/12/18 00:15:29;;;;;;;95.63;32.93;;;3.10;99.90;;;;;;4882982;29;20213;-91
2020/12/18 00:17:55;;;;;;;91.73;35.43;;;4.80;99.90;;;;;;4882538;29;20655;-92
2020/12/18 00:20:21;;;;;;;91.63;33.13;;;2.90;99.90;;;;;;4899407;29;20265;-92
2020/12/18 00:22:47;;;;;;;85.67;32.10;;;4.20;99.90;;;;;;4882836;29;20196;-91
2020/12/18 00:25:14;;;;;;;98.23;33.90;;;4.70;99.90;;;;;;4882841;29;20194;-92
2020/12/18 00:27:40;;;;;;;86.63;32.33;;;4.70;99.90;;;;;;4882965;29;20212;-93
2020/12/18 00:30:07;;;;;;;89.57;32.57;;;3.30;99.90;;;;;;4867035;29;20288;-92
2020/12/18 00:32:33;;;;;;;92.20;32.67;;;2.90;99.90;;;;;;4867718;29;20220;-93
2020/12/18 00:34:59;;;;;;;85.07;32.73;;;3.80;99.90;;;;;;4882415;29;20218;-93
2020/12/18 00:37:24;;;;;;;86.47;31.60;;;3.50;99.90;;;;;;4867222;29;20221;-91
2020/12/18 00:39:50;;;;;;;81.70;29.73;;;3.90;99.90;;;;;;4867203;29;20212;-91
2020/12/18 00:42:18;;;;;;;86.00;29.23;;;3.20;99.90;;;;;;4866879;29;20237;-91
2020/12/18 00:44:43;;;;;;;86.43;30.30;;;3.70;99.90;;;;;;4882393;29;20196;-92
2020/12/18 00:47:09;;;;;;;83.47;32.47;;;3.00;99.90;;;;;;4882036;29;20194;-92
2020/12/18 00:49:35;;;;;;;90.53;31.93;;;3.00;99.90;;;;;;4881222;29;20228;-92
2020/12/18 00:52:00;;;;;;;88.23;31.87;;;3.50;99.90;;;;;;4898981;29;20595;-91
2020/12/18 00:54:26;;;;;;;85.50;31.93;;;3.50;99.90;;;;;;4882497;29;20619;-92
2020/12/18 00:56:52;;;;;;;83.37;31.57;;;2.90;99.90;;;;;;4882099;29;20248;-91
2020/12/18 00:59:17;;;;;;;88.63;32.30;;;4.10;99.90;;;;;;4866497;29;20186;-90
2020/12/18 01:01:43;;;;;;;109.23;39.63;;;2.90;99.90;;;;;;4898937;29;20194;-90
2020/12/18 01:04:09;;;;;;;85.93;31.97;;;2.90;99.90;;;;;;4881534;29;20190;-89
2020/12/18 01:06:34;;;;;;;84.17;28.97;;;4.50;99.90;;;;;;4882009;29;20521;-90
2020/12/18 01:09:02;;;;;;;88.50;29.10;;;0.90;99.90;;;;;;4881551;29;20181;-90
2020/12/18 01:11:28;;;;;;;83.27;27.80;;;3.70;99.90;;;;;;4882735;29;20185;-90
2020/12/18 01:13:54;;;;;;;76.97;27.27;;;4.90;99.90;;;;;;4898606;29;20547;-91
2020/12/18 01:16:19;;;;;;;74.40;27.37;;;5.10;99.90;;;;;;4881415;29;20220;-91
2020/12/18 01:18:45;;;;;;;70.67;26.83;;;2.30;99.90;;;;;;4898448;29;20217;-91
2020/12/18 01:21:11;;;;;;;78.50;28.33;;;3.10;99.90;;;;;;4881602;29;20185;-92
2020/12/18 01:23:36;;;;;;;70.30;25.83;;;5.20;99.90;;;;;;4881926;29;20189;-91
2020/12/18 01:26:02;;;;;;;76.03;26.17;;;4.60;99.90;;;;;;4881454;29;20753;-91
2020/12/18 01:28:28;;;;;;;69.37;26.50;;;2.90;99.90;;;;;;4898440;29;20262;-91
2020/12/18 01:30:54;;;;;;;65.00;25.90;;;5.00;99.90;;;;;;4881496;29;20233;-91
2020/12/18 01:33:22;;;;;;;68.50;26.23;;;3.00;99.90;;;;;;4881472;29;20220;-91
2020/12/18 01:35:48;;;;;;;61.30;23.67;;;4.10;99.90;;;;;;4866615;29;20651;-91
2020/12/18 01:38:13;;;;;;;64.00;25.17;;;3.80;99.90;;;;;;4881470;29;20204;-91
2020/12/18 01:40:39;;;;;;;68.40;25.37;;;3.00;99.90;;;;;;4898365;29;20177;-91
2020/12/18 01:43:05;;;;;;;77.40;24.93;;;3.50;99.90;;;;;;4898048;29;20264;-90
2020/12/18 01:45:30;;;;;;;61.20;24.80;;;3.00;99.90;;;;;;4881636;29;20273;-91
2020/12/18 01:47:56;;;;;;;70.33;25.93;;;4.30;99.90;;;;;;4898103;29;20187;-91
2020/12/18 01:50:22;;;;;;;65.77;24.50;;;3.00;99.90;;;;;;4865877;29;20635;-91
2020/12/18 01:52:49;;;;;;;74.90;27.83;;;3.20;99.90;;;;;;4881531;29;20213;-90
2020/12/18 01:55:15;;;;;;;68.23;27.50;;;4.70;99.90;;;;;;4897884;29;20196;-90
2020/12/18 01:57:42;;;;;;;57.27;23.97;;;3.40;99.90;;;;;;4898307;29;20213;-90
2020/12/18 02:00:09;;;;;;;61.23;25.27;;;3.80;99.90;;;;;;4899948;29;20185;-91
2020/12/18 02:02:35;;;;;;;63.63;25.47;;;3.90;99.90;;;;;;4887493;29;20548;-91
2020/12/18 02:05:00;;;;;;;61.07;26.17;;;4.10;99.90;;;;;;4887658;29;20194;-91
2020/12/18 02:07:28;;;;;;;64.30;26.00;;;3.00;99.90;;;;;;4887307;29;20181;-91
2020/12/18 02:09:55;;;;;;;60.17;26.17;;;4.20;99.90;;;;;;4904412;29;20189;-91
2020/12/18 02:12:21;;;;;;;66.30;25.40;;;3.00;99.90;;;;;;4904020;29;20180;-90
2020/12/18 02:14:50;;;;;;;65.00;28.27;;;3.30;99.90;;;;;;4887546;29;20730;-90
2020/12/18 02:17:17;;;;;;;69.30;28.57;;;3.30;99.90;;;;;;4886878;29;20592;-90
2020/12/18 02:19:49;;;;;;;56.07;26.10;;;3.00;99.90;;;;;;4887644;29;20190;-91
2020/12/18 02:22:20;;;;;;;72.67;28.33;;;3.50;99.90;;;;;;4904099;29;20200;-91
2020/12/18 02:25:07;;;;;;;68.57;25.87;;;5.00;99.90;;;;;;4904272;29;20173;-90
2020/12/18 02:27:34;;;;;;;65.57;26.90;;;2.90;99.90;;;;;;4887163;29;20185;-89
2020/12/18 02:30:00;;;;;;;59.20;25.20;;;3.10;99.90;;;;;;4886858;29;20270;-90
2020/12/18 02:32:25;;;;;;;55.70;21.73;;;2.90;99.90;;;;;;4871711;29;20675;-90
2020/12/18 02:34:52;;;;;;;72.97;26.97;;;2.80;99.90;;;;;;4904015;29;20263;-90
2020/12/18 02:37:17;;;;;;;65.20;25.63;;;4.80;99.90;;;;;;4903903;29;20217;-90
2020/12/18 02:39:43;;;;;;;69.13;28.17;;;5.00;99.90;;;;;;4903802;29;20192;-90
2020/12/18 02:42:09;;;;;;;75.23;27.83;;;2.80;99.90;;;;;;4886932;29;20188;-92
2020/12/18 02:44:35;;;;;;;69.13;27.37;;;4.70;99.90;;;;;;4871943;29;20281;-92
2020/12/18 02:47:00;;;;;;;57.47;25.13;;;3.30;99.90;;;;;;4904215;29;20221;-92
2020/12/18 02:49:26;;;;;;;70.20;28.83;;;2.80;99.90;;;;;;4886882;29;20188;-91
2020/12/18 02:51:52;;;;;;;71.57;28.17;;;2.70;99.90;;;;;;4904224;29;20192;-92
2020/12/18 02:54:17;;;;;;;61.00;25.70;;;4.00;99.90;;;;;;4871449;29;20191;-91
2020/12/18 02:56:43;;;;;;;68.83;28.90;;;1.30;99.90;;;;;;4887446;29;20256;-92
2020/12/18 02:59:09;;;;;;;81.03;30.53;;;4.00;99.90;;;;;;4872281;29;20283;-92
2020/12/18 03:01:34;;;;;;;71.57;27.77;;;1.70;99.90;;;;;;4887222;29;20216;-92
2020/12/18 03:04:00;;;;;;;73.73;28.97;;;3.00;99.90;;;;;;4886957;29;20189;-92
2020/12/18 03:06:26;;;;;;;80.97;31.00;;;2.60;99.90;;;;;;4903497;29;20192;-92
2020/12/18 03:08:52;;;;;;;69.83;26.13;;;3.70;99.90;;;;;;4871624;29;20551;-93
2020/12/18 03:11:17;;;;;;;78.93;32.37;;;2.50;99.90;;;;;;4902816;29;20220;-92
2020/12/18 03:13:44;;;;;;;83.87;35.27;;;2.50;99.90;;;;;;4883514;29;20216;-92
2020/12/18 03:16:11;;;;;;;81.27;35.43;;;2.50;99.90;;;;;;4900936;29;20213;-92
2020/12/18 03:18:41;;;;;;;79.00;30.07;;;2.40;99.90;;;;;;4900875;29;20226;-92
2020/12/18 03:21:07;;;;;;;75.87;31.23;;;2.40;99.90;;;;;;4900654;29;20222;-91
2020/12/18 03:23:32;;;;;;;68.17;27.10;;;3.80;99.90;;;;;;4883281;29;20223;-91
2020/12/18 03:25:58;;;;;;;69.60;28.17;;;2.30;99.90;;;;;;4884003;29;20197;-91
2020/12/18 03:28:24;;;;;;;68.63;29.10;;;2.30;99.90;;;;;;4900179;29;20539;-90
2020/12/18 03:30:50;;;;;;;73.57;30.30;;;3.60;99.90;;;;;;4867719;29;20323;-92
2020/12/18 03:33:16;;;;;;;69.70;28.93;;;3.90;99.90;;;;;;4883184;29;20184;-90
2020/12/18 03:35:41;;;;;;;67.60;29.77;;;2.30;99.90;;;;;;4900168;29;20216;-90
2020/12/18 03:38:07;;;;;;;73.77;27.33;;;2.40;99.90;;;;;;4883356;29;20192;-90
2020/12/18 03:40:33;;;;;;;65.47;27.40;;;3.90;99.90;;;;;;4883088;29;20192;-90
2020/12/18 03:42:58;;;;;;;63.67;27.50;;;4.70;99.90;;;;;;4900457;29;20197;-91
2020/12/18 03:45:24;;;;;;;68.43;27.77;;;1.70;99.90;;;;;;4900701;29;20188;-90
2020/12/18 03:47:50;;;;;;;62.43;26.13;;;3.10;99.90;;;;;;4883837;29;20193;-91
2020/12/18 03:50:15;;;;;;;63.40;25.97;;;4.10;99.90;;;;;;4900605;29;20189;-91
2020/12/18 03:52:41;;;;;;;66.73;26.23;;;4.80;99.90;;;;;;4867943;29;20221;-91
2020/12/18 03:55:07;;;;;;;57.80;26.63;;;2.30;99.90;;;;;;4887169;29;20177;-88
2020/12/18 03:57:33;;;;;;;67.23;27.40;;;2.30;99.90;;;;;;4887300;29;20300;-86
2020/12/18 03:59:58;;;;;;;72.33;29.03;;;3.40;99.90;;;;;;4885171;29;20192;-87
2020/12/18 04:02:24;;;;;;;69.07;29.50;;;3.60;99.90;;;;;;4899796;29;20196;-86
2020/12/18 04:04:50;;;;;;;66.13;27.90;;;3.10;99.90;;;;;;4883351;29;20184;-87
2020/12/18 04:07:17;;;;;;;65.77;26.67;;;2.60;99.90;;;;;;4902188;29;20189;-91
2020/12/18 04:09:43;;;;;;;65.23;26.90;;;2.30;99.90;;;;;;4869836;29;20198;-93
2020/12/18 04:12:10;;;;;;;64.83;27.53;;;2.30;99.90;;;;;;4902514;29;20177;-89
2020/12/18 04:14:36;;;;;;;73.10;28.50;;;2.60;99.90;;;;;;4902918;29;20181;-89
2020/12/18 04:17:03;;;;;;;69.93;28.77;;;2.50;99.90;;;;;;4900467;29;20269;-89
2020/12/18 04:19:29;;;;;;;68.10;29.40;;;3.20;99.90;;;;;;4910120;29;20174;-93
2020/12/18 04:21:55;;;;;;;72.33;29.23;;;2.40;99.90;;;;;;4883319;29;20324;-93
2020/12/18 04:24:21;;;;;;;67.90;29.10;;;3.30;99.90;;;;;;4882750;29;20604;-90
2020/12/18 04:26:47;;;;;;;68.27;29.73;;;2.40;99.90;;;;;;4883108;29;20181;-92
2020/12/18 04:29:13;;;;;;;62.23;27.70;;;2.30;99.90;;;;;;4882399;29;20657;-92
2020/12/18 04:31:38;;;;;;;70.30;27.07;;;3.60;99.90;;;;;;4851803;29;20543;-92
2020/12/18 04:34:04;;;;;;;74.90;29.63;;;1.30;99.90;;;;;;4852819;29;20207;-95
2020/12/18 04:36:30;;;;;;;68.17;28.50;;;4.00;99.90;;;;;;4882699;29;20227;-92
2020/12/18 04:38:55;;;;;;;69.10;27.80;;;3.60;99.90;;;;;;4882500;29;20225;-93
2020/12/18 04:41:21;;;;;;;64.77;28.27;;;2.90;99.90;;;;;;4882911;29;20188;-92
2020/12/18 04:43:48;;;;;;;40.03;17.47;;;2.60;99.90;;;;;;4882564;29;20185;-93
2020/12/18 04:46:17;;;;;;;75.07;30.13;;;4.50;99.90;;;;;;4898068;29;20219;-91
2020/12/18 04:48:43;;;;;;;70.60;29.87;;;4.20;99.90;;;;;;4865940;29;20466;-93
2020/12/18 04:51:16;;;;;;;74.80;30.07;;;2.40;99.90;;;;;;4898590;29;20173;-92
2020/12/18 04:53:42;;;;;;;74.83;31.90;;;2.40;99.90;;;;;;4881713;29;20321;-95
2020/12/18 04:56:11;;;;;;;76.73;32.13;;;3.30;99.90;;;;;;4898063;29;20300;-91
2020/12/18 04:58:38;;;;;;;70.50;29.33;;;2.40;99.90;;;;;;4880136;29;20181;-92
2020/12/18 05:01:06;;;;;;;74.90;32.90;;;3.60;99.90;;;;;;4881034;29;20775;-92
2020/12/18 05:03:33;;;;;;;76.77;31.20;;;2.30;99.90;;;;;;4897479;29;20185;-90
2020/12/18 05:06:04;;;;;;;74.60;30.87;;;4.00;99.90;;;;;;4880730;29;20212;-93
2020/12/18 05:08:32;;;;;;;81.87;31.87;;;2.40;99.90;;;;;;4897668;29;20228;-93
2020/12/18 05:10:59;;;;;;;59.30;26.43;;;2.30;99.90;;;;;;4880938;29;20184;-92
2020/12/18 05:13:25;;;;;;;79.47;32.53;;;1.30;99.90;;;;;;4897125;29;20185;-92
2020/12/18 05:15:51;;;;;;;75.50;33.83;;;3.70;99.90;;;;;;4880674;29;20276;-91
2020/12/18 05:18:21;;;;;;;85.10;34.50;;;2.20;99.90;;;;;;4881290;29;20181;-92
2020/12/18 05:20:47;;;;;;;78.57;31.83;;;3.00;99.90;;;;;;4881016;29;20209;-91
2020/12/18 05:23:13;;;;;;;79.23;33.13;;;2.40;99.90;;;;;;4897728;29;20341;-90
2020/12/18 05:25:39;;;;;;;85.10;31.77;;;2.40;99.90;;;;;;4849300;29;20192;-90
2020/12/18 05:28:05;;;;;;;76.53;33.17;;;3.80;99.90;;;;;;4881643;29;20682;-91
2020/12/18 05:30:33;;;;;;;78.90;33.87;;;2.70;99.90;;;;;;4897556;29;20281;-93
2020/12/18 05:32:58;;;;;;;82.07;32.30;;;2.50;99.90;;;;;;4898719;29;20185;-92
2020/12/18 05:35:25;;;;;;;83.40;34.40;;;2.50;99.90;;;;;;4898110;29;20192;-92
2020/12/18 05:37:53;;;;;;;89.20;35.30;;;2.50;99.90;;;;;;4881341;29;20575;-91
2020/12/18 05:40:19;;;;;;;84.23;35.33;;;4.20;99.90;;;;;;4882355;29;20213;-90
2020/12/18 05:42:47;;;;;;;97.17;36.37;;;2.40;99.90;;;;;;4881093;29;20220;-90
2020/12/18 05:45:20;;;;;;;85.30;30.83;;;3.20;99.90;;;;;;4881345;29;20197;-92
2020/12/18 05:47:58;;;;;;;91.77;34.70;;;3.10;99.90;;;;;;4880943;29;20185;-92
2020/12/18 05:50:37;;;;;;;88.90;35.87;;;4.30;99.90;;;;;;4881485;29;20199;-91
2020/12/18 05:53:05;;;;;;;82.63;34.73;;;2.40;99.90;;;;;;4867093;29;20694;-92
2020/12/18 05:55:39;;;;;;;93.93;36.77;;;3.30;99.90;;;;;;4865099;29;20194;-90
2020/12/18 05:58:06;;;;;;;88.03;36.03;;;2.40;99.90;;;;;;4881102;29;20245;-92
2020/12/18 06:00:37;;;;;;;91.47;35.80;;;4.60;99.90;;;;;;4865335;29;20201;-89
2020/12/18 06:03:11;;;;;;;95.70;36.23;;;2.60;99.90;;;;;;4880963;29;20185;-91
2020/12/18 06:05:44;;;;;;;95.43;37.73;;;2.50;99.90;;;;;;4897790;29;20244;-89
2020/12/18 06:08:19;;;;;;;87.80;36.40;;;2.50;99.90;;;;;;4883226;29;20194;-95
2020/12/18 06:10:45;;;;;;;90.20;37.73;;;4.30;99.90;;;;;;4879130;29;20666;-93
2020/12/18 06:13:11;;;;;;;96.10;38.40;;;4.30;99.90;;;;;;4879257;29;20212;-89
2020/12/18 06:15:37;;;;;;;87.67;34.77;;;3.50;99.90;;;;;;4862412;29;20186;-91
2020/12/18 06:18:04;;;;;;;94.00;38.57;;;4.10;99.90;;;;;;4862382;29;20707;-89
2020/12/18 06:20:35;;;;;;;94.20;37.40;;;2.50;99.90;;;;;;4878894;29;20217;-89
2020/12/18 06:23:07;;;;;;;84.03;33.30;;;2.50;99.90;;;;;;4846841;29;20190;-90
2020/12/18 06:25:40;;;;;;;93.10;38.10;;;3.70;99.90;;;;;;4862764;29;20186;-88
2020/12/18 06:28:06;;;;;;;103.87;40.53;;;2.60;99.90;;;;;;4862268;29;20190;-88
2020/12/18 06:30:31;;;;;;;105.20;41.77;;;2.80;99.90;;;;;;4847105;29;20237;-88
2020/12/18 06:32:57;;;;;;;100.13;40.27;;;3.20;99.90;;;;;;4850214;29;20193;-85
2020/12/18 06:35:34;;;;;;;107.93;40.83;;;3.00;99.90;;;;;;4868189;29;20221;-88
2020/12/18 06:38:12;;;;;;;102.07;39.20;;;2.80;99.90;;;;;;4862333;29;20657;-89
2020/12/18 06:40:38;;;;;;;102.80;40.23;;;1.80;99.90;;;;;;4878857;29;20181;-88
2020/12/18 06:43:04;;;;;;;103.07;40.43;;;3.90;99.90;;;;;;4862601;29;20194;-88
2020/12/18 06:45:38;;;;;;;102.03;42.13;;;2.70;99.90;;;;;;4862129;29;20202;-92
2020/12/18 06:48:25;;;;;;;116.27;43.47;;;2.90;99.90;;;;;;4880713;29;20185;-91
2020/12/18 06:50:51;;;;;;;101.57;41.13;;;2.60;99.90;;;;;;4865631;29;20652;-90
2020/12/18 06:53:17;;;;;;;108.80;41.27;;;3.70;99.90;;;;;;4882717;29;20188;-91
2020/12/18 06:55:43;;;;;;;106.70;42.10;;;2.90;99.90;;;;;;4874571;29;20399;-94
2020/12/18 06:58:09;;;;;;;112.33;43.47;;;2.90;99.90;;;;;;4892102;29;20667;-94
2020/12/18 07:00:45;;;;;;;105.67;41.73;;;2.60;99.90;;;;;;4873388;29;20230;-90
2020/12/18 07:03:30;;;;;;;112.83;42.53;;;2.60;99.90;;;;;;4872813;29;20189;-88
2020/12/18 07:06:03;;;;;;;106.47;41.50;;;3.20;99.90;;;;;;4863762;29;20183;-88
2020/12/18 07:08:33;;;;;;;112.13;43.37;;;2.60;99.90;;;;;;4873240;29;20214;-88
2020/12/18 07:11:01;;;;;;;119.60;44.97;;;2.70;99.90;;;;;;4870381;29;20285;-89
2020/12/18 07:13:28;;;;;;;105.93;41.13;;;2.70;99.90;;;;;;4889861;29;20173;-90
2020/12/18 07:15:57;;;;;;;123.07;45.47;;;3.20;99.90;;;;;;4866440;29;20217;-90
2020/12/18 07:18:28;;;;;;;119.73;46.40;;;2.40;99.90;;;;;;4893001;29;20212;-89
2020/12/18 07:21:20;;;;;;;118.13;45.80;;;2.80;99.90;;;;;;4898784;29;20220;-89
2020/12/18 07:23:47;;;;;;;120.53;46.17;;;2.80;99.90;;;;;;4877202;29;20618;-88
2020/12/18 07:26:15;;;;;;;116.03;47.70;;;3.50;99.90;;;;;;4897587;29;20193;-89
2020/12/18 07:28:42;;;;;;;112.27;44.23;;;2.90;99.90;;;;;;4866395;29;20648;-88
2020/12/18 07:31:28;;;;;;;108.43;42.80;;;3.70;99.90;;;;;;4854526;29;20752;-89
2020/12/18 07:33:55;;;;;;;131.67;51.57;;;3.20;99.90;;;;;;4864986;29;20209;-90
2020/12/18 07:36:21;;;;;;;122.23;46.37;;;4.20;99.90;;;;;;4843730;29;20304;-89
2020/12/18 07:38:47;;;;;;;115.63;43.70;;;3.60;99.90;;;;;;4889233;29;20209;-89
2020/12/18 07:41:16;;;;;;;130.07;47.33;;;2.90;99.90;;;;;;4859728;29;20640;-89
2020/12/18 07:43:45;;;;;;;135.50;50.47;;;2.80;99.90;;;;;;4875112;29;20220;-89
2020/12/18 07:46:16;;;;;;;116.93;45.30;;;2.80;99.90;;;;;;4889875;29;20246;-90
2020/12/18 07:48:42;;;;;;;113.40;43.67;;;3.30;99.90;;;;;;4889690;29;20723;-89
2020/12/18 07:51:10;;;;;;;115.47;45.20;;;4.10;99.90;;;;;;4873629;29;20268;-90
2020/12/18 07:53:38;;;;;;;107.57;44.73;;;3.50;99.90;;;;;;4889490;29;20643;-90
2020/12/18 07:56:08;;;;;;;116.10;45.30;;;2.80;99.90;;;;;;4868031;29;20213;-91
2020/12/18 07:58:45;;;;;;;117.37;45.63;;;3.00;99.90;;;;;;4888416;29;20191;-92
2020/12/18 08:01:16;;;;;;;112.43;44.20;;;2.90;99.90;;;;;;4850309;29;20182;-92
2020/12/18 08:03:48;;;;;;;120.80;46.33;;;2.90;99.90;;;;;;4879883;29;20203;-91
2020/12/18 08:06:23;;;;;;;116.30;47.27;;;3.30;99.90;;;;;;4862540;29;20189;-91
2020/12/18 08:08:57;;;;;;;115.77;44.53;;;2.90;99.90;;;;;;4880130;29;20237;-92
2020/12/18 08:11:27;;;;;;;119.33;45.70;;;2.90;99.90;;;;;;4863313;29;20544;-92
2020/12/18 08:13:57;;;;;;;122.90;45.13;;;2.90;99.90;;;;;;4879947;29;20174;-90
2020/12/18 08:16:25;;;;;;;122.27;46.13;;;3.90;99.90;;;;;;4863736;29;20595;-91
2020/12/18 08:19:01;;;;;;;131.10;47.60;;;2.90;99.90;;;;;;4880749;29;20209;-91
2020/12/18 08:21:40;;;;;;;131.03;48.63;;;2.90;99.90;;;;;;4864361;29;20178;-90
2020/12/18 08:24:14;;;;;;;108.93;45.63;;;2.90;99.90;;;;;;4880738;29;20178;-90
2020/12/18 08:27:06;;;;;;;122.97;46.40;;;4.60;99.90;;;;;;4864555;29;20186;-90
2020/12/18 08:29:32;;;;;;;121.23;47.23;;;3.00;99.90;;;;;;4864180;29;20728;-90
2020/12/18 08:32:02;;;;;;;115.67;46.43;;;3.00;99.90;;;;;;4864291;29;20232;-90
2020/12/18 08:34:30;;;;;;;112.23;46.57;;;3.00;99.90;;;;;;4863971;29;20523;-90
2020/12/18 08:36:57;;;;;;;115.83;44.33;;;3.00;99.90;;;;;;4880632;29;20222;-91
2020/12/18 08:39:27;;;;;;;115.77;46.47;;;3.00;99.90;;;;;;4880599;29;20182;-90
2020/12/18 08:41:56;;;;;;;124.77;47.57;;;3.30;99.90;;;;;;4880664;29;20609;-90
2020/12/18 08:44:29;;;;;;;128.83;47.13;;;3.80;99.90;;;;;;4864185;29;20625;-92
2020/12/18 08:47:02;;;;;;;130.47;50.93;;;3.10;99.90;;;;;;4863907;29;20187;-91
2020/12/18 08:49:31;;;;;;;127.93;48.93;;;2.40;99.90;;;;;;4848746;29;20202;-92
2020/12/18 08:52:03;;;;;;;131.73;52.17;;;5.20;99.90;;;;;;4880959;29;20186;-92
2020/12/18 08:54:34;;;;;;;135.87;50.83;;;3.90;99.90;;;;;;4864674;29;20207;-92
2020/12/18 08:57:26;;;;;;;130.90;47.37;;;3.30;99.90;;;;;;4863764;29;20293;-91
2020/12/18 09:00:05;;;;;;;123.87;47.60;;;3.10;99.90;;;;;;4882213;29;20277;-92
2020/12/18 09:02:33;;;;;;;118.50;48.23;;;3.20;99.90;;;;;;4884356;29;20187;-89
2020/12/18 09:05:13;;;;;;;131.57;47.80;;;3.20;99.90;;;;;;4863404;29;20190;-89
2020/12/18 09:07:49;;;;;;;120.07;44.00;;;3.20;99.90;;;;;;4864794;29;20199;-89
2020/12/18 09:10:29;;;;;;;127.63;48.23;;;3.30;99.90;;;;;;4879342;29;20194;-92
2020/12/18 09:12:56;;;;;;;104.63;41.33;;;3.30;99.90;;;;;;4879935;29;20213;-89
2020/12/18 09:15:26;;;;;;;120.50;45.57;;;3.40;99.90;;;;;;4863564;29;20640;-88
2020/12/18 09:18:03;;;;;;;118.83;44.23;;;3.40;99.90;;;;;;4880087;29;20197;-89
2020/12/18 09:20:35;;;;;;;119.77;44.57;;;4.50;99.90;;;;;;4863183;29;20643;-91
2020/12/18 09:23:04;;;;;;;119.67;43.30;;;3.60;99.90;;;;;;4879787;29;20588;-89
2020/12/18 09:25:34;;;;;;;116.70;42.97;;;3.90;99.90;;;;;;4879783;29;20550;-90
2020/12/18 09:27:59;;;;;;;129.27;45.10;;;3.60;99.90;;;;;;4879817;29;20667;-90
2020/12/18 09:30:27;;;;;;;112.00;42.30;;;4.30;99.90;;;;;;4863059;29;20261;-87
2020/12/18 09:33:31;;;;;;;117.33;42.93;;;3.60;99.90;;;;;;4863024;29;20178;-90
2020/12/18 09:36:00;;;;;;;115.87;42.53;;;3.60;99.90;;;;;;4862776;29;20674;-88
2020/12/18 09:38:28;;;;;;;110.13;41.77;;;4.10;99.90;;;;;;4879745;29;20190;-88
2020/12/18 09:40:55;;;;;;;119.83;41.07;;;3.60;99.90;;;;;;4862613;29;20191;-87
2020/12/18 09:43:21;;;;;;;124.67;43.13;;;4.30;99.90;;;;;;4879117;29;20223;-88
2020/12/18 09:45:47;;;;;;;129.03;44.53;;;3.60;99.90;;;;;;4862833;29;20560;-90
2020/12/18 09:48:13;;;;;;;126.00;44.43;;;3.70;99.90;;;;;;4879344;29;20187;-89
2020/12/18 09:50:39;;;;;;;117.53;42.53;;;3.70;99.90;;;;;;4881590;29;20552;-90
2020/12/18 09:53:05;;;;;;;125.03;41.90;;;3.80;99.90;;;;;;4885277;29;20190;-86
2020/12/18 09:55:31;;;;;;;111.50;40.53;;;4.20;99.90;;;;;;4871071;29;20543;-91
2020/12/18 09:57:57;;;;;;;113.17;40.07;;;3.70;99.90;;;;;;4882216;29;20196;-91
2020/12/18 10:00:22;;;;;;;114.00;40.00;;;3.70;99.90;;;;;;4869548;29;20192;-88
2020/12/18 10:02:48;;;;;;;100.47;36.53;;;3.70;99.90;;;;;;4875362;29;20193;-89
2020/12/18 10:05:14;;;;;;;124.67;42.17;;;3.70;99.90;;;;;;4891046;29;20221;-90
2020/12/18 10:07:40;;;;;;;116.07;38.03;;;3.70;99.90;;;;;;4840604;29;20190;-88
2020/12/18 10:10:05;;;;;;;118.17;38.93;;;3.80;99.90;;;;;;4871365;29;20246;-88
2020/12/18 10:12:31;;;;;;;120.73;42.30;;;3.80;99.90;;;;;;4872008;29;20197;-85
2020/12/18 10:14:57;;;;;;;99.73;37.83;;;3.90;99.90;;;;;;4864365;29;20703;-87
2020/12/18 10:17:23;;;;;;;114.77;39.70;;;3.90;99.90;;;;;;4855571;29;20700;-88
2020/12/18 10:19:49;;;;;;;105.30;38.73;;;4.40;99.90;;;;;;4894614;29;20652;-88
2020/12/18 10:22:14;;;;;;;105.20;38.27;;;3.90;99.90;;;;;;4888346;29;20269;-89
2020/12/18 10:24:40;;;;;;;107.97;37.67;;;4.00;99.90;;;;;;4866039;29;20554;-90
2020/12/18 10:27:06;;;;;;;114.90;37.17;;;4.00;99.90;;;;;;4884996;29;20195;-88
2020/12/18 10:29:32;;;;;;;111.30;38.30;;;4.20;99.90;;;;;;4882860;29;20735;-91
2020/12/18 10:31:58;;;;;;;117.47;38.97;;;4.20;99.90;;;;;;4870291;29;20190;-88
2020/12/18 10:34:24;;;;;;;105.50;34.37;;;4.10;99.90;;;;;;4888424;29;20271;-88
2020/12/18 10:36:54;;;;;;;110.10;35.33;;;4.10;99.90;;;;;;4882511;29;20222;-84
2020/12/18 10:39:24;;;;;;;90.30;32.27;;;4.10;99.90;;;;;;4882888;29;20192;-86
2020/12/18 10:41:53;;;;;;;105.00;36.70;;;4.10;99.90;;;;;;4882297;29;20195;-87
2020/12/18 10:44:20;;;;;;;105.40;35.07;;;4.30;99.90;;;;;;4882559;29;20191;-87
2020/12/18 10:46:47;;;;;;;97.87;34.57;;;4.20;99.90;;;;;;4882369;29;20195;-89
2020/12/18 10:49:14;;;;;;;106.37;35.73;;;5.00;99.90;;;;;;4882186;29;20253;-87
2020/12/18 10:51:41;;;;;;;101.20;35.73;;;4.20;99.90;;;;;;4865411;29;20593;-87
2020/12/18 10:54:07;;;;;;;91.50;33.70;;;4.70;99.90;;;;;;4865474;29;20193;-87
2020/12/18 10:56:38;;;;;;;105.20;34.93;;;4.50;99.90;;;;;;4865262;29;20216;-86
2020/12/18 10:59:04;;;;;;;109.47;37.97;;;4.20;99.90;;;;;;4851036;29;20201;-91
2020/12/18 11:01:29;;;;;;;118.27;36.27;;;4.20;99.90;;;;;;4853424;29;20190;-87
2020/12/18 11:03:55;;;;;;;95.83;34.47;;;4.20;99.90;;;;;;4882054;29;20673;-88
2020/12/18 11:06:20;;;;;;;107.63;36.23;;;4.60;99.90;;;;;;4882207;29;20249;-90
2020/12/18 11:08:46;;;;;;;114.17;35.17;;;4.30;99.90;;;;;;4865220;29;20555;-86
2020/12/18 11:11:13;;;;;;;101.73;33.50;;;4.30;99.90;;;;;;4881748;29;20545;-86
2020/12/18 11:13:39;;;;;;;108.97;34.03;;;4.30;99.90;;;;;;4881917;29;20219;-89
2020/12/18 11:16:04;;;;;;;102.87;34.70;;;4.40;99.90;;;;;;4881830;29;20701;-88
2020/12/18 11:18:33;;;;;;;100.67;31.53;;;4.40;99.90;;;;;;4881579;29;20651;-88
2020/12/18 11:21:00;;;;;;;99.30;33.97;;;4.80;99.90;;;;;;4891221;29;20189;-87
2020/12/18 11:23:26;;;;;;;95.87;32.80;;;4.40;99.90;;;;;;4890765;29;20227;-88
2020/12/18 11:25:51;;;;;;;106.10;34.40;;;4.40;99.90;;;;;;4859458;29;20192;-88
2020/12/18 11:28:17;;;;;;;102.57;37.50;;;4.40;99.90;;;;;;4887927;29;20266;-86
2020/12/18 11:30:43;;;;;;;104.97;33.43;;;4.40;99.90;;;;;;4882626;29;20306;-88
2020/12/18 11:33:08;;;;;;;97.47;30.10;;;4.60;99.90;;;;;;4899403;29;20180;-87
2020/12/18 11:35:34;;;;;;;104.57;34.07;;;4.40;99.90;;;;;;4900038;29;20202;-87
2020/12/18 11:37:59;;;;;;;93.13;32.67;;;4.40;99.90;;;;;;4883253;29;20242;-84
2020/12/18 11:40:25;;;;;;;96.63;30.10;;;4.40;99.90;;;;;;4899896;29;20193;-84
2020/12/18 11:42:51;;;;;;;89.30;30.77;;;4.50;99.90;;;;;;4883129;29;20678;-85
2020/12/18 11:45:17;;;;;;;94.20;33.77;;;4.40;99.90;;;;;;4883484;29;20294;-85
2020/12/18 11:47:42;;;;;;;86.80;31.67;;;4.50;99.90;;;;;;4900060;29;20266;-87
2020/12/18 11:50:08;;;;;;;84.47;29.67;;;4.50;99.90;;;;;;4900272;29;20271;-87
2020/12/18 11:52:34;;;;;;;95.97;32.03;;;4.60;99.90;;;;;;4900086;29;20655;-87
2020/12/18 11:55:00;;;;;;;97.27;32.80;;;4.60;99.90;;;;;;4883815;29;20186;-86
2020/12/18 11:57:25;;;;;;;103.37;34.00;;;4.50;99.90;;;;;;4884846;29;20696;-87
2020/12/18 11:59:51;;;;;;;101.30;34.57;;;4.50;99.90;;;;;;4853980;29;20278;-87
2020/12/18 12:02:16;;;;;;;90.10;31.63;;;4.50;99.90;;;;;;4867479;29;20189;-87
2020/12/18 12:04:42;;;;;;;113.57;33.83;;;5.00;99.90;;;;;;4898934;29;20197;-87
2020/12/18 12:07:08;;;;;;;100.50;32.23;;;4.60;99.90;;;;;;4881838;29;20678;-88
2020/12/18 12:09:33;;;;;;;95.73;31.70;;;4.60;99.90;;;;;;4882381;29;20188;-87
2020/12/18 12:11:59;;;;;;;102.33;35.20;;;4.60;99.90;;;;;;4899591;29;20638;-87
2020/12/18 12:14:24;;;;;;;99.77;32.60;;;4.60;99.90;;;;;;4899588;29;20681;-86
2020/12/18 12:16:50;;;;;;;97.67;32.03;;;4.70;99.90;;;;;;4899542;29;20223;-87
2020/12/18 12:19:17;;;;;;;101.63;33.30;;;4.60;99.90;;;;;;4882956;29;20193;-86
2020/12/18 12:21:42;;;;;;;94.43;31.50;;;4.60;99.90;;;;;;4882833;29;20293;-86
2020/12/18 12:24:08;;;;;;;94.80;30.30;;;4.70;99.90;;;;;;4899627;29;20200;-86
2020/12/18 12:26:34;;;;;;;93.80;31.60;;;4.70;99.90;;;;;;4882510;29;20645;-86
2020/12/18 12:29:00;;;;;;;93.20;32.60;;;4.70;99.90;;;;;;4899478;29;20219;-88
2020/12/18 12:31:25;;;;;;;93.47;32.23;;;4.70;99.90;;;;;;4899166;29;20183;-91
2020/12/18 12:33:51;;;;;;;98.70;32.40;;;4.70;99.90;;;;;;4882492;29;20258;-89
2020/12/18 12:36:25;;;;;;;88.47;31.63;;;4.70;99.90;;;;;;4882496;29;20220;-88